createdAt,value
2018-11-23T00:00:35.375Z,102171.23
2018-11-23T00:03:02.189Z,102167.17
2018-11-23T00:05:28.789Z,102169.56
2018-11-23T00:07:57.829Z,102171.47
2018-11-23T00:10:26.892Z,102175.53
2018-11-23T00:12:54.438Z,102166.22
2018-11-23T00:15:22.168Z,102166.97
2018-11-23T00:17:48.788Z,102164.31
2018-11-23T00:20:16.684Z,102167.36
2018-11-23T00:22:43.742Z,102167.17
2018-11-23T00:25:12.737Z,102164.25
2018-11-23T00:27:40.570Z,102161.59
2018-11-23T00:30:12.497Z,102161.73
2018-11-23T00:32:39.932Z,102155.20
2018-11-23T00:35:08.018Z,102161.93
2018-11-23T00:37:36.070Z,102160.60
2018-11-23T00:40:02.640Z,102158.81
2018-11-23T00:42:29.246Z,102157.92
2018-11-23T00:44:55.811Z,102163.55
2018-11-23T00:47:24.342Z,102166.48
2018-11-23T00:49:50.921Z,102169.07
2018-11-23T00:52:18.827Z,102162.62
2018-11-23T00:54:45.388Z,102165.13
2018-11-23T00:57:12.377Z,102160.72
2018-11-23T00:59:39.066Z,102158.82
2018-11-23T01:02:07.196Z,102161.48
2018-11-23T01:04:35.243Z,102155.02
2018-11-23T01:07:02.295Z,102153.69
2018-11-23T01:09:30.063Z,102153.31
2018-11-23T01:11:57.604Z,102155.97
2018-11-23T01:14:25.640Z,102153.69
2018-11-23T01:16:52.214Z,102154.75
2018-11-23T01:19:19.842Z,102148.03
2018-11-23T01:21:48.475Z,102149.36
2018-11-23T01:24:16.915Z,102141.53
2018-11-23T01:26:43.476Z,102142.09
2018-11-23T01:29:10.190Z,102142.78
2018-11-23T01:31:37.929Z,102144.19
2018-11-23T01:34:04.608Z,102148.67
2018-11-23T01:36:31.192Z,102139.16
2018-11-23T01:38:57.810Z,102134.87
2018-11-23T01:41:24.830Z,102131.27
2018-11-23T01:43:51.341Z,102127.08
2018-11-23T01:46:18.671Z,102131.08
2018-11-23T01:48:45.281Z,102127.95
2018-11-23T01:51:13.011Z,102123.36
2018-11-23T01:53:39.609Z,102119.86
2018-11-23T01:56:07.474Z,102122.83
2018-11-23T01:58:34.065Z,102124.05
2018-11-23T02:01:00.733Z,102125.23
2018-11-23T02:03:27.559Z,102120.44
2018-11-23T02:05:54.153Z,102123.47
2018-11-23T02:08:20.745Z,102128.72
2018-11-23T02:10:47.371Z,102122.34
2018-11-23T02:13:14.208Z,102115.87
2018-11-23T02:15:41.572Z,102119.59
2018-11-23T02:18:08.159Z,102122.52
2018-11-23T02:20:34.797Z,102111.50
2018-11-23T02:23:01.362Z,102116.62
2018-11-23T02:25:27.980Z,102110.34
2018-11-23T02:27:54.570Z,102112.06
2018-11-23T02:30:22.524Z,102102.05
2018-11-23T02:32:49.127Z,102110.61
2018-11-23T02:35:16.100Z,102097.57
2018-11-23T02:37:42.704Z,102101.41
2018-11-23T02:40:10.710Z,102099.70
2018-11-23T02:42:37.643Z,102093.81
2018-11-23T02:45:06.131Z,102089.59
2018-11-23T02:47:32.718Z,102088.83
2018-11-23T02:49:59.328Z,102094.53
2018-11-23T02:52:25.902Z,102086.87
2018-11-23T02:54:52.499Z,102082.23
2018-11-23T02:57:19.105Z,102086.80
2018-11-23T02:59:45.707Z,102084.26
2018-11-23T03:02:12.297Z,102083.12
2018-11-23T03:04:38.904Z,102078.07
2018-11-23T03:07:05.487Z,102078.56
2018-11-23T03:09:32.118Z,102075.02
2018-11-23T03:11:58.695Z,102072.93
2018-11-23T03:14:25.297Z,102071.34
2018-11-23T03:16:51.884Z,102072.09
2018-11-23T03:19:18.480Z,102070.27
2018-11-23T03:21:45.104Z,102060.58
2018-11-23T03:24:11.691Z,102061.91
2018-11-23T03:26:38.287Z,102058.61
2018-11-23T03:29:04.943Z,102055.78
2018-11-23T03:31:31.546Z,102055.08
2018-11-23T03:33:58.146Z,102054.74
2018-11-23T03:36:24.771Z,102063.49
2018-11-23T03:38:51.687Z,102060.84
2018-11-23T03:41:18.284Z,102061.41
2018-11-23T03:43:44.959Z,102067.60
2018-11-23T03:46:11.580Z,102070.83
2018-11-23T03:48:38.153Z,102062.80
2018-11-23T03:51:04.825Z,102072.31
2018-11-23T03:53:31.417Z,102068.17
2018-11-23T03:55:58.025Z,102063.70
2018-11-23T03:58:24.610Z,102060.84
2018-11-23T04:00:51.226Z,102057.30
2018-11-23T04:03:17.806Z,102057.42
2018-11-23T04:05:44.409Z,102050.59
2018-11-23T04:08:10.977Z,102056.47
2018-11-23T04:10:37.575Z,102047.34
2018-11-23T04:13:04.417Z,102053.03
2018-11-23T04:15:31.015Z,102051.73
2018-11-23T04:17:57.616Z,102051.53
2018-11-23T04:20:24.207Z,102055.95
2018-11-23T04:22:50.785Z,102055.52
2018-11-23T04:25:17.396Z,102053.61
2018-11-23T04:27:44.018Z,102056.35
2018-11-23T04:30:12.685Z,102056.20
2018-11-23T04:32:39.275Z,102058.48
2018-11-23T04:35:07.554Z,102065.40
2018-11-23T04:37:34.122Z,102064.00
2018-11-23T04:40:00.715Z,102060.08
2018-11-23T04:42:27.286Z,102053.25
2018-11-23T04:44:53.872Z,102051.20
2018-11-23T04:47:20.455Z,102051.64
2018-11-23T04:49:47.036Z,102047.94
2018-11-23T04:52:13.625Z,102051.91
2018-11-23T04:54:40.193Z,102047.34
2018-11-23T04:57:06.798Z,102050.08
2018-11-23T04:59:33.377Z,102049.44
2018-11-23T05:01:59.957Z,102048.48
2018-11-23T05:04:26.542Z,102049.94
2018-11-23T05:06:53.120Z,102057.05
2018-11-23T05:09:19.688Z,102051.98
2018-11-23T05:11:46.299Z,102057.69
2018-11-23T05:14:12.873Z,101995.45
2018-11-23T05:16:39.474Z,102054.83
2018-11-23T05:19:06.098Z,102048.48
2018-11-23T05:21:32.685Z,102053.23
2018-11-23T05:23:59.265Z,102048.66
2018-11-23T05:26:25.877Z,102044.99
2018-11-23T05:28:52.457Z,102046.03
2018-11-23T05:31:19.045Z,102045.08
2018-11-23T05:33:45.606Z,102048.69
2018-11-23T05:36:12.217Z,102043.57
2018-11-23T05:38:38.796Z,102041.20
2018-11-23T05:41:05.378Z,102036.72
2018-11-23T05:43:31.954Z,102046.09
2018-11-23T05:45:58.541Z,102040.31
2018-11-23T05:48:26.960Z,102035.77
2018-11-23T05:50:51.768Z,102039.56
2018-11-23T05:53:18.351Z,102037.67
2018-11-23T05:55:44.924Z,102037.97
2018-11-23T05:58:11.575Z,102041.58
2018-11-23T06:00:38.133Z,102043.29
2018-11-23T06:03:04.724Z,102036.84
2018-11-23T06:05:31.288Z,102044.33
2018-11-23T06:07:57.908Z,102044.62
2018-11-23T06:10:24.504Z,102039.87
2018-11-23T06:12:51.140Z,102038.17
2018-11-23T06:15:18.920Z,102036.08
2018-11-23T06:17:46.057Z,102031.84
2018-11-23T06:20:14.727Z,102036.58
2018-11-23T06:22:41.678Z,102027.84
2018-11-23T06:25:11.087Z,102030.50
2018-11-23T06:27:37.952Z,102038.36
2018-11-23T06:30:05.986Z,102032.36
2018-11-23T06:33:12.101Z,102033.16
2018-11-23T06:35:38.663Z,102031.26
2018-11-23T06:38:05.243Z,102031.84
2018-11-23T06:40:31.813Z,102025.50
2018-11-23T06:42:58.406Z,102024.89
2018-11-23T06:45:24.982Z,102025.56
2018-11-23T06:47:51.545Z,102025.76
2018-11-23T06:50:18.130Z,102026.65
2018-11-23T06:52:44.718Z,102024.62
2018-11-23T06:55:11.637Z,102027.47
2018-11-23T06:57:38.460Z,102030.13
2018-11-23T07:00:26.451Z,102030.97
2018-11-23T07:02:58.900Z,102037.16
2018-11-23T07:05:19.610Z,102040.50
2018-11-23T07:07:46.175Z,102033.73
2018-11-23T07:10:12.777Z,102038.36
2018-11-23T07:12:39.896Z,102035.19
2018-11-23T07:15:10.453Z,102032.03
2018-11-23T07:17:37.281Z,102042.09
2018-11-23T07:20:05.373Z,102039.52
2018-11-23T07:22:31.935Z,102036.40
2018-11-23T07:24:58.533Z,102045.27
2018-11-23T07:27:25.101Z,102034.75
2018-11-23T07:29:51.689Z,102035.51
2018-11-23T07:32:18.261Z,102042.61
2018-11-23T07:34:44.862Z,102038.92
2018-11-23T07:37:11.460Z,102038.80
2018-11-23T07:40:18.373Z,102038.80
2018-11-23T07:42:44.936Z,102038.43
2018-11-23T07:45:11.551Z,102047.22
2018-11-23T07:47:38.114Z,102037.61
2018-11-23T07:50:06.410Z,102042.47
2018-11-23T07:52:32.976Z,102040.02
2018-11-23T07:54:59.560Z,102037.55
2018-11-23T07:57:26.149Z,102040.39
2018-11-23T07:59:52.748Z,102031.60
2018-11-23T08:02:19.316Z,102032.84
2018-11-23T08:04:45.949Z,102034.17
2018-11-23T08:07:12.535Z,102030.50
2018-11-23T08:09:39.933Z,102027.09
2018-11-23T08:12:06.796Z,102030.13
2018-11-23T08:14:33.389Z,102032.41
2018-11-23T08:16:59.993Z,102037.23
2018-11-23T08:19:26.554Z,102037.16
2018-11-23T08:21:53.144Z,102035.91
2018-11-23T08:24:19.725Z,102038.74
2018-11-23T08:26:46.328Z,102036.45
2018-11-23T08:29:12.898Z,102032.98
2018-11-23T08:31:39.707Z,102031.45
2018-11-23T08:34:06.539Z,102022.98
2018-11-23T08:36:33.150Z,102029.92
2018-11-23T08:39:04.700Z,102034.64
2018-11-23T08:41:26.314Z,102030.39
2018-11-23T08:43:52.890Z,102034.88
2018-11-23T08:46:19.537Z,102028.30
2018-11-23T08:48:46.125Z,102031.84
2018-11-23T08:51:13.030Z,102023.36
2018-11-23T08:53:39.592Z,102023.73
2018-11-23T08:56:06.172Z,102012.64
2018-11-23T08:58:32.736Z,102014.12
2018-11-23T09:00:59.330Z,102017.33
2018-11-23T09:03:25.914Z,102006.86
2018-11-23T09:05:52.489Z,102016.31
2018-11-23T09:08:19.072Z,102009.78
2018-11-23T09:10:45.669Z,102009.03
2018-11-23T09:13:12.270Z,102004.46
2018-11-23T09:15:38.839Z,102009.78
2018-11-23T09:18:05.440Z,102000.94
2018-11-23T09:20:32.022Z,102000.35
2018-11-23T09:22:58.619Z,101997.44
2018-11-23T09:25:25.184Z,101993.56
2018-11-23T09:27:51.849Z,101990.59
2018-11-23T09:30:19.876Z,101994.45
2018-11-23T09:32:47.147Z,101988.38
2018-11-23T09:35:13.743Z,101990.09
2018-11-23T09:37:40.723Z,101993.33
2018-11-23T09:40:09.503Z,101995.41
2018-11-23T09:42:36.272Z,101986.73
2018-11-23T09:45:03.167Z,101980.14
2018-11-23T09:47:29.766Z,101975.94
2018-11-23T09:49:56.356Z,101986.33
2018-11-23T09:52:22.952Z,101981.80
2018-11-23T09:54:49.645Z,101982.13
2018-11-23T09:57:16.226Z,101976.56
2018-11-23T09:59:42.833Z,101975.19
2018-11-23T10:02:09.561Z,101973.19
2018-11-23T10:04:36.225Z,101972.16
2018-11-23T10:07:02.937Z,101970.73
2018-11-23T10:09:29.564Z,101976.76
2018-11-23T10:11:56.166Z,101981.00
2018-11-23T10:14:22.761Z,101972.81
2018-11-23T10:16:49.361Z,101975.20
2018-11-23T10:19:35.582Z,101974.24
2018-11-23T10:22:02.185Z,101972.63
2018-11-23T10:24:28.790Z,101965.92
2018-11-23T10:26:55.351Z,101961.14
2018-11-23T10:29:22.272Z,101957.65
2018-11-23T10:31:48.837Z,101954.75
2018-11-23T10:34:15.981Z,101954.00
2018-11-23T10:36:42.565Z,101960.89
2018-11-23T10:39:09.158Z,101954.23
2018-11-23T10:41:35.749Z,101949.38
2018-11-23T10:44:02.338Z,101953.16
2018-11-23T10:46:28.921Z,101954.00
2018-11-23T10:48:55.520Z,101957.78
2018-11-23T10:51:22.110Z,101952.67
2018-11-23T10:53:48.678Z,101948.42
2018-11-23T10:56:15.276Z,101942.56
2018-11-23T10:58:41.883Z,101945.27
2018-11-23T11:01:28.072Z,101943.52
2018-11-23T11:04:14.263Z,101940.15
2018-11-23T11:07:00.480Z,101942.60
2018-11-23T11:09:27.064Z,101947.30
2018-11-23T11:11:53.668Z,101930.25
2018-11-23T11:14:20.242Z,101927.30
2018-11-23T11:16:46.832Z,101935.08
2018-11-23T11:19:13.423Z,101928.95
2018-11-23T11:21:40.011Z,101933.41
2018-11-23T11:24:06.582Z,101921.72
2018-11-23T11:26:33.206Z,101919.14
2018-11-23T11:28:59.799Z,101917.10
2018-11-23T11:31:26.640Z,101908.28
2018-11-23T11:33:53.220Z,101907.28
2018-11-23T11:36:19.807Z,101900.51
2018-11-23T11:38:46.389Z,101904.41
2018-11-23T11:41:13.077Z,101898.75
2018-11-23T11:43:39.822Z,101888.87
2018-11-23T11:46:06.777Z,101882.17
2018-11-23T11:48:33.684Z,101883.17
2018-11-23T11:51:00.293Z,101872.52
2018-11-23T11:53:27.070Z,101870.95
2018-11-23T11:55:53.706Z,101869.06
2018-11-23T11:58:20.437Z,101867.52
2018-11-23T12:00:47.703Z,101709.83
2018-11-23T12:03:14.288Z,101866.12
2018-11-23T12:05:40.910Z,101863.61
2018-11-23T12:08:07.519Z,101857.70
2018-11-23T12:10:34.159Z,101855.78
2018-11-23T12:13:00.781Z,101848.97
2018-11-23T12:15:27.542Z,101849.71
2018-11-23T12:17:54.144Z,101844.54
2018-11-23T12:20:22.240Z,101847.11
2018-11-23T12:22:49.187Z,101845.55
2018-11-23T12:25:16.087Z,101844.20
2018-11-23T12:27:42.682Z,101847.05
2018-11-23T12:30:11.215Z,101839.22
2018-11-23T12:32:37.796Z,101848.53
2018-11-23T12:35:05.901Z,101847.42
2018-11-23T12:37:32.467Z,101851.56
2018-11-23T12:39:59.979Z,101841.75
2018-11-23T12:42:26.557Z,101779.37
2018-11-23T12:44:53.173Z,101847.88
2018-11-23T12:47:19.860Z,101848.75
2018-11-23T12:49:46.482Z,101844.63
2018-11-23T12:52:13.093Z,101835.09
2018-11-23T12:54:39.681Z,101776.50
2018-11-23T12:57:07.024Z,101832.61
2018-11-23T12:59:33.608Z,101836.92
2018-11-23T13:02:00.655Z,101834.88
2018-11-23T13:04:27.279Z,101829.95
2018-11-23T13:06:53.931Z,101824.73
2018-11-23T13:09:20.610Z,101832.70
2018-11-23T13:11:47.200Z,101823.51
2018-11-23T13:14:13.783Z,101820.02
2018-11-23T13:16:40.574Z,101817.00
2018-11-23T13:19:07.166Z,101819.54
2018-11-23T13:21:33.746Z,101817.98
2018-11-23T13:24:00.857Z,101812.75
2018-11-23T13:26:27.433Z,101814.45
2018-11-23T13:28:54.250Z,101813.86
2018-11-23T13:31:20.943Z,101812.44
2018-11-23T13:33:47.517Z,101811.48
2018-11-23T13:36:14.107Z,101803.83
2018-11-23T13:38:40.682Z,101805.41
2018-11-23T13:41:07.290Z,101807.35
2018-11-23T13:43:33.873Z,101796.57
2018-11-23T13:46:04.425Z,101794.18
2018-11-23T13:48:31.116Z,101795.63
2018-11-23T13:50:57.977Z,101795.03
2018-11-23T13:53:24.595Z,101795.03
2018-11-23T13:55:51.591Z,101780.23
2018-11-23T13:58:18.205Z,101787.63
2018-11-23T14:00:44.925Z,101793.31
2018-11-23T14:03:11.569Z,101780.73
2018-11-23T14:05:38.167Z,101784.01
2018-11-23T14:08:04.949Z,101781.12
2018-11-23T14:10:31.723Z,101778.70
2018-11-23T14:12:58.369Z,101771.44
2018-11-23T14:15:26.356Z,101771.67
2018-11-23T14:17:54.016Z,101773.02
2018-11-23T14:20:21.577Z,101778.47
2018-11-23T14:22:48.164Z,101767.31
2018-11-23T14:25:16.078Z,101767.69
2018-11-23T14:27:43.145Z,101769.88
2018-11-23T14:30:31.566Z,101771.67
2018-11-23T14:32:58.639Z,101772.41
2018-11-23T14:35:29.262Z,101769.14
2018-11-23T14:37:56.673Z,101772.03
2018-11-23T14:40:23.245Z,101774.92
2018-11-23T14:42:50.216Z,101762.94
2018-11-23T14:45:19.194Z,101764.77
2018-11-23T14:47:46.363Z,101769.02
2018-11-23T14:50:15.352Z,101771.80
2018-11-23T14:52:43.128Z,101761.02
2018-11-23T14:55:09.706Z,101773.28
2018-11-23T14:57:37.123Z,101770.09
2018-11-23T15:00:08.436Z,101771.19
2018-11-23T15:02:35.005Z,101769.95
2018-11-23T15:05:01.570Z,101762.46
2018-11-23T15:07:28.190Z,101762.33
2018-11-23T15:09:55.007Z,101764.03
2018-11-23T15:12:21.601Z,101764.41
2018-11-23T15:14:48.214Z,101762.70
2018-11-23T15:17:14.807Z,101771.92
2018-11-23T15:19:41.405Z,101761.37
2018-11-23T15:22:07.984Z,101765.95
2018-11-23T15:24:34.593Z,101766.92
2018-11-23T15:27:01.176Z,101764.25
2018-11-23T15:29:27.768Z,101757.00
2018-11-23T15:31:54.341Z,101764.03
2018-11-23T15:34:20.977Z,101756.54
2018-11-23T15:37:08.098Z,101749.23
2018-11-23T15:39:34.630Z,101742.95
2018-11-23T15:42:02.648Z,101746.95
2018-11-23T15:44:29.467Z,101748.41
2018-11-23T15:46:56.085Z,101749.02
2018-11-23T15:49:24.437Z,101746.27
2018-11-23T15:51:52.538Z,101748.56
2018-11-23T15:54:20.270Z,101750.12
2018-11-23T15:56:54.875Z,101740.66
2018-11-23T15:59:22.250Z,101738.00
2018-11-23T16:01:49.047Z,101737.03
2018-11-23T16:04:16.874Z,101736.57
2018-11-23T16:06:43.461Z,101741.67
2018-11-23T16:09:11.771Z,101734.38
2018-11-23T16:11:38.413Z,101733.33
2018-11-23T16:14:05.113Z,101726.52
2018-11-23T16:16:31.711Z,101727.02
2018-11-23T16:18:58.314Z,101722.88
2018-11-23T16:21:24.894Z,101728.09
2018-11-23T16:23:51.489Z,101726.29
2018-11-23T16:26:18.065Z,101717.70
2018-11-23T16:28:44.644Z,101718.16
2018-11-23T16:31:11.213Z,101722.03
2018-11-23T16:33:37.822Z,101717.42
2018-11-23T16:36:04.405Z,101721.32
2018-11-23T16:38:30.953Z,101719.48
2018-11-23T16:40:57.537Z,101717.55
2018-11-23T16:43:24.185Z,101715.48
2018-11-23T16:45:50.773Z,101721.55
2018-11-23T16:48:18.085Z,101724.20
2018-11-23T16:50:44.956Z,101720.95
2018-11-23T16:53:11.584Z,101718.38
2018-11-23T16:55:38.181Z,101716.59
2018-11-23T16:58:24.388Z,101716.68
2018-11-23T17:00:50.984Z,101713.55
2018-11-23T17:03:19.128Z,101715.13
2018-11-23T17:05:55.637Z,101717.42
2018-11-23T17:08:22.208Z,101708.09
2018-11-23T17:10:48.786Z,101706.03
2018-11-23T17:13:15.368Z,101702.77
2018-11-23T17:15:41.936Z,101702.40
2018-11-23T17:18:08.621Z,101701.80
2018-11-23T17:20:35.760Z,101701.06
2018-11-23T17:23:03.317Z,101699.97
2018-11-23T17:25:30.470Z,101704.09
2018-11-23T17:27:58.321Z,101707.48
2018-11-23T17:30:26.142Z,101706.16
2018-11-23T17:32:52.935Z,101699.73
2018-11-23T17:35:19.618Z,101693.31
2018-11-23T17:37:46.222Z,101692.34
2018-11-23T17:40:14.113Z,101691.14
2018-11-23T17:42:40.700Z,101696.97
2018-11-23T17:45:12.043Z,101691.88
2018-11-23T17:47:38.684Z,101703.27
2018-11-23T17:50:07.698Z,101703.51
2018-11-23T17:52:34.273Z,101704.61
2018-11-23T17:55:00.858Z,101706.05
2018-11-23T17:57:27.446Z,101704.84
2018-11-23T17:59:54.019Z,101700.24
2018-11-23T18:02:22.769Z,101696.84
2018-11-23T18:04:50.012Z,101686.19
2018-11-23T18:07:16.700Z,101687.02
2018-11-23T18:09:43.428Z,101686.55
2018-11-23T18:12:10.033Z,101689.31
2018-11-23T18:14:36.582Z,101689.68
2018-11-23T18:17:03.266Z,101689.69
2018-11-23T18:19:30.008Z,101686.06
2018-11-23T18:21:56.618Z,101679.06
2018-11-23T18:24:23.187Z,101681.10
2018-11-23T18:26:50.776Z,101675.44
2018-11-23T18:29:17.520Z,101670.71
2018-11-23T18:31:44.082Z,101668.52
2018-11-23T18:34:10.698Z,101668.78
2018-11-23T18:36:37.318Z,101665.75
2018-11-23T18:39:06.731Z,101656.52
2018-11-23T18:41:33.306Z,101657.75
2018-11-23T18:43:59.951Z,101654.95
2018-11-23T18:46:26.515Z,101661.98
2018-11-23T18:48:53.117Z,101668.41
2018-11-23T18:51:19.695Z,101667.91
2018-11-23T18:53:46.304Z,101670.34
2018-11-23T18:56:12.867Z,101669.11
2018-11-23T18:58:39.467Z,101674.94
2018-11-23T19:01:06.055Z,101675.44
2018-11-23T19:03:32.658Z,101616.94
2018-11-23T19:05:59.218Z,101667.68
2018-11-23T19:08:25.819Z,101665.84
2018-11-23T19:10:52.433Z,101663.55
2018-11-23T19:13:19.050Z,101659.09
2018-11-23T19:15:45.590Z,101659.78
2018-11-23T19:18:12.416Z,101661.25
2018-11-23T19:20:38.992Z,101659.09
2018-11-23T19:23:05.629Z,101651.45
2018-11-23T19:25:32.206Z,101652.80
2018-11-23T19:27:58.808Z,101652.42
2018-11-23T19:30:28.516Z,101645.50
2018-11-23T19:32:51.964Z,101652.30
2018-11-23T19:35:18.535Z,101645.77
2018-11-23T19:37:45.127Z,101645.13
2018-11-23T19:40:12.623Z,101641.27
2018-11-23T19:42:39.387Z,101645.13
2018-11-23T19:45:15.424Z,101644.53
2018-11-23T19:47:42.034Z,101645.77
2018-11-23T19:50:12.636Z,101645.86
2018-11-23T19:52:39.390Z,101637.77
2018-11-23T19:55:10.564Z,101637.87
2018-11-23T19:57:37.134Z,101632.17
2018-11-23T20:00:25.934Z,101629.27
2018-11-23T20:02:52.607Z,101631.56
2018-11-23T20:05:19.232Z,101625.17
2018-11-23T20:07:47.035Z,101628.80
2018-11-23T20:10:17.688Z,101619.71
2018-11-23T20:12:45.017Z,101616.69
2018-11-23T20:15:15.865Z,101615.36
2018-11-23T20:17:42.434Z,101608.69
2018-11-23T20:20:10.280Z,101610.63
2018-11-23T20:22:36.849Z,101617.16
2018-11-23T20:25:05.523Z,101608.92
2018-11-23T20:27:32.106Z,101594.03
2018-11-23T20:29:58.706Z,101589.43
2018-11-23T20:32:25.287Z,101590.89
2018-11-23T20:34:51.887Z,101589.19
2018-11-23T20:37:18.722Z,101588.83
2018-11-23T20:39:56.151Z,101582.63
2018-11-23T20:42:28.287Z,101571.49
2018-11-23T20:44:57.864Z,101570.62
2018-11-23T20:47:24.881Z,101571.50
2018-11-23T20:49:51.791Z,101572.58
2018-11-23T20:52:18.854Z,101573.08
2018-11-23T20:54:45.457Z,101570.79
2018-11-23T20:57:12.031Z,101567.98
2018-11-23T20:59:39.130Z,101565.45
2018-11-23T21:02:05.213Z,101561.91
2018-11-23T21:04:31.795Z,101560.95
2018-11-23T21:06:58.396Z,101553.45
2018-11-23T21:09:30.998Z,101557.68
2018-11-23T21:11:51.563Z,101565.30
2018-11-23T21:14:18.159Z,101563.00
2018-11-23T21:16:44.729Z,101556.11
2018-11-23T21:19:11.309Z,101554.03
2018-11-23T21:21:37.883Z,101553.08
2018-11-23T21:24:04.530Z,101544.95
2018-11-23T21:26:31.127Z,101543.73
2018-11-23T21:28:57.688Z,101548.46
2018-11-23T21:31:24.316Z,101548.70
2018-11-23T21:33:50.881Z,101544.84
2018-11-23T21:36:17.479Z,101545.31
2018-11-23T21:38:44.071Z,101537.44
2018-11-23T21:41:10.681Z,101540.70
2018-11-23T21:43:37.259Z,101536.12
2018-11-23T21:46:03.877Z,101537.92
2018-11-23T21:48:30.461Z,101536.26
2018-11-23T21:50:57.055Z,101541.59
2018-11-23T21:53:23.636Z,101543.51
2018-11-23T21:55:50.214Z,101545.81
2018-11-23T21:58:16.785Z,101542.80
2018-11-23T22:00:43.371Z,101543.77
2018-11-23T22:03:09.942Z,101539.55
2018-11-23T22:05:36.529Z,101542.55
2018-11-23T22:08:03.102Z,101542.08
2018-11-23T22:10:29.694Z,101535.91
2018-11-23T22:12:56.247Z,101540.59
2018-11-23T22:15:23.658Z,101539.28
2018-11-23T22:17:51.186Z,101545.72
2018-11-23T22:20:37.389Z,101548.97
2018-11-23T22:23:03.969Z,101545.95
2018-11-23T22:25:30.926Z,101543.03
2018-11-23T22:27:57.464Z,101535.16
2018-11-23T22:30:47.269Z,101531.26
2018-11-23T22:33:13.843Z,101529.59
2018-11-23T22:35:40.430Z,101533.92
2018-11-23T22:38:07.008Z,101529.09
2018-11-23T22:40:33.607Z,101529.08
2018-11-23T22:43:00.189Z,101517.33
2018-11-23T22:45:26.772Z,101510.30
2018-11-23T22:47:53.356Z,101511.41
2018-11-23T22:50:21.042Z,101496.53
2018-11-23T22:52:47.918Z,101498.58
2018-11-23T22:55:14.806Z,101503.17
2018-11-23T22:57:41.407Z,101498.69
2018-11-23T23:03:19.668Z,101489.26
2018-11-23T23:05:46.270Z,101489.95
2018-11-23T23:08:12.838Z,101481.63
2018-11-23T23:10:39.451Z,101479.91
2018-11-23T23:13:06.031Z,101482.44
2018-11-23T23:15:32.601Z,101477.33
2018-11-23T23:17:59.194Z,101472.99
2018-11-23T23:20:25.769Z,101473.73
2018-11-23T23:22:52.363Z,101474.48
2018-11-23T23:25:18.927Z,101482.48
2018-11-23T23:27:45.519Z,101464.80
2018-11-23T23:30:13.238Z,101471.21
2018-11-23T23:32:39.824Z,101473.27
2018-11-23T23:35:07.562Z,101475.09
2018-11-23T23:37:34.183Z,101478.36
2018-11-23T23:40:00.721Z,101472.78
2018-11-23T23:42:27.304Z,101472.65
2018-11-23T23:44:53.869Z,101460.05
2018-11-23T23:47:20.481Z,101460.03
2018-11-23T23:49:47.074Z,101452.76
2018-11-23T23:52:13.661Z,101455.80
2018-11-23T23:54:40.231Z,101459.83
2018-11-23T23:57:06.847Z,101452.22
2018-11-23T23:59:33.421Z,101454.37
